Аэропорт: Сыктывкар. Сыктывкар

ICAO: UUYY

METAR:
2024-05-18 16:00:00
UUYY 181600Z 05001MPS CAVOK 10/M04 Q1021 R36/61D NOSIG RMK QFE757/1009
TAF:
2024-05-18 14:00:00
TAF UUYY 181400Z 1815/1915 34003G12MPS 9999 SCT020 
  TEMPO 1815/1817 29005MPS 
  BECMG 1817/1818 22003G11MPS